createdAt,value
2017-06-03T00:00:39.672Z,64.37
2017-06-03T00:01:41.303Z,64.24
2017-06-03T00:02:43.046Z,63.40
2017-06-03T00:03:44.704Z,64.24
2017-06-03T00:04:46.367Z,64.05
2017-06-03T00:05:48.013Z,64.82
2017-06-03T00:06:49.623Z,64.92
2017-06-03T00:07:51.309Z,64.82
2017-06-03T00:08:52.924Z,65.85
2017-06-03T00:09:54.570Z,65.75
2017-06-03T00:10:56.205Z,65.66
2017-06-03T00:11:57.813Z,65.40
2017-06-03T00:12:59.484Z,64.92
2017-06-03T00:14:01.100Z,64.63
2017-06-03T00:15:02.728Z,64.53
2017-06-03T00:16:04.360Z,64.24
2017-06-03T00:17:06.015Z,64.34
2017-06-03T00:18:07.699Z,64.05
2017-06-03T00:19:09.412Z,64.72
2017-06-03T00:20:11.084Z,65.75
2017-06-03T00:21:12.751Z,65.56
2017-06-03T00:22:14.389Z,65.40
2017-06-03T00:23:16.106Z,65.75
2017-06-03T00:24:17.897Z,65.75
2017-06-03T00:25:19.595Z,65.56
2017-06-03T00:26:21.278Z,65.50
2017-06-03T00:27:22.993Z,65.37
2017-06-03T00:28:24.736Z,65.11
2017-06-03T00:29:26.470Z,65.08
2017-06-03T00:30:28.214Z,65.95
2017-06-03T00:31:29.902Z,65.95
2017-06-03T00:32:31.601Z,66.33
2017-06-03T00:33:33.271Z,65.95
2017-06-03T00:34:35.023Z,66.33
2017-06-03T00:35:36.659Z,66.11
2017-06-03T00:36:38.338Z,66.24
2017-06-03T00:37:40.017Z,66.33
2017-06-03T00:38:41.678Z,66.43
2017-06-03T00:39:43.476Z,65.75
2017-06-03T00:40:45.151Z,66.52
2017-06-03T00:41:46.858Z,65.85
2017-06-03T00:42:48.575Z,65.66
2017-06-03T00:43:50.265Z,65.56
2017-06-03T00:44:51.985Z,65.30
2017-06-03T00:45:53.724Z,64.82
2017-06-03T00:46:55.355Z,64.53
2017-06-03T00:47:57.023Z,64.63
2017-06-03T00:48:58.670Z,64.92
2017-06-03T00:50:00.344Z,64.72
2017-06-03T00:51:02.018Z,64.53
2017-06-03T00:52:03.643Z,63.37
2017-06-03T00:53:05.295Z,63.67
2017-06-03T00:54:06.947Z,63.76
2017-06-03T00:55:08.620Z,63.28
2017-06-03T00:56:10.265Z,63.76
2017-06-03T00:57:11.916Z,64.24
2017-06-03T00:58:13.597Z,64.53
2017-06-03T00:59:15.248Z,63.76
2017-06-03T01:00:16.951Z,64.63
2017-06-03T01:01:18.590Z,64.53
2017-06-03T01:02:20.292Z,64.63
2017-06-03T01:03:21.933Z,64.82
2017-06-03T01:04:23.580Z,64.34
2017-06-03T01:05:25.263Z,64.24
2017-06-03T01:06:26.892Z,64.24
2017-06-03T01:07:28.558Z,63.67
2017-06-03T01:08:30.181Z,64.05
2017-06-03T01:09:31.845Z,64.05
2017-06-03T01:10:33.556Z,64.24
2017-06-03T01:11:35.246Z,64.82
2017-06-03T01:12:36.889Z,64.72
2017-06-03T01:13:38.551Z,64.63
2017-06-03T01:14:40.232Z,64.34
2017-06-03T01:15:41.865Z,64.72
2017-06-03T01:16:43.513Z,63.76
2017-06-03T01:17:45.137Z,64.24
2017-06-03T01:18:46.819Z,64.15
2017-06-03T01:19:48.506Z,64.24
2017-06-03T01:20:50.147Z,64.34
2017-06-03T01:21:51.751Z,64.43
2017-06-03T01:22:53.413Z,63.76
2017-06-03T01:23:55.069Z,63.47
2017-06-03T01:24:56.763Z,63.76
2017-06-03T01:25:58.383Z,63.12
2017-06-03T01:27:00.027Z,64.15
2017-06-03T01:28:01.664Z,65.17
2017-06-03T01:29:03.268Z,65.56
2017-06-03T01:30:05.007Z,64.72
2017-06-03T01:31:06.645Z,64.72
2017-06-03T01:32:08.299Z,64.63
2017-06-03T01:33:09.904Z,64.82
2017-06-03T01:34:11.544Z,64.24
2017-06-03T01:35:13.232Z,64.15
2017-06-03T01:36:14.877Z,64.15
2017-06-03T01:37:16.506Z,64.05
2017-06-03T01:38:18.181Z,63.85
2017-06-03T01:39:19.869Z,63.85
2017-06-03T01:40:21.531Z,64.15
2017-06-03T01:41:23.210Z,64.34
2017-06-03T01:42:24.832Z,64.05
2017-06-03T01:43:26.465Z,63.67
2017-06-03T01:44:28.166Z,64.63
2017-06-03T01:45:29.809Z,64.40
2017-06-03T01:46:31.528Z,65.66
2017-06-03T01:47:33.191Z,65.47
2017-06-03T01:48:34.862Z,64.59
2017-06-03T01:49:36.609Z,65.66
2017-06-03T01:50:38.252Z,65.50
2017-06-03T01:51:39.911Z,65.85
2017-06-03T01:52:41.548Z,65.56
2017-06-03T01:53:43.195Z,65.47
2017-06-03T01:54:44.887Z,65.47
2017-06-03T01:56:26.031Z,65.47
2017-06-03T01:58:07.245Z,65.47
2017-06-03T01:59:08.939Z,65.56
2017-06-03T02:00:10.598Z,65.75
2017-06-03T02:01:12.285Z,65.75
2017-06-03T02:02:13.935Z,66.24
2017-06-03T02:03:15.677Z,66.52
2017-06-03T02:04:17.425Z,66.24
2017-06-03T02:05:19.127Z,65.85
2017-06-03T02:06:20.803Z,65.85
2017-06-03T02:07:22.512Z,65.75
2017-06-03T02:08:24.180Z,65.47
2017-06-03T02:09:25.889Z,65.85
2017-06-03T02:10:27.597Z,65.85
2017-06-03T02:11:29.247Z,65.85
2017-06-03T02:12:30.886Z,65.17
2017-06-03T02:13:32.553Z,65.56
2017-06-03T02:14:34.195Z,65.56
2017-06-03T02:15:35.876Z,65.75
2017-06-03T02:16:37.490Z,65.37
2017-06-03T02:17:39.194Z,66.04
2017-06-03T02:18:40.951Z,66.24
2017-06-03T02:19:42.614Z,66.14
2017-06-03T02:20:44.248Z,65.95
2017-06-03T02:21:45.911Z,65.85
2017-06-03T02:22:47.552Z,66.14
2017-06-03T02:23:49.273Z,65.56
2017-06-03T02:24:50.987Z,65.75
2017-06-03T02:25:52.666Z,65.85
2017-06-03T02:26:54.352Z,65.95
2017-06-03T02:27:55.985Z,66.24
2017-06-03T02:28:57.666Z,65.17
2017-06-03T02:29:59.284Z,65.66
2017-06-03T02:31:00.909Z,65.75
2017-06-03T02:32:02.568Z,66.33
2017-06-03T02:33:04.304Z,65.66
2017-06-03T02:34:05.985Z,65.75
2017-06-03T02:35:07.633Z,66.14
2017-06-03T02:36:09.249Z,65.95
2017-06-03T02:37:10.946Z,66.24
2017-06-03T02:38:12.595Z,66.14
2017-06-03T02:39:14.164Z,66.24
2017-06-03T02:40:15.821Z,66.14
2017-06-03T02:41:17.437Z,65.17
2017-06-03T02:42:19.130Z,66.04
2017-06-03T02:43:20.775Z,65.85
2017-06-03T02:44:22.492Z,66.04
2017-06-03T02:45:24.102Z,66.04
2017-06-03T02:46:25.727Z,66.14
2017-06-03T02:47:27.462Z,66.52
2017-06-03T02:48:29.100Z,66.33
2017-06-03T02:49:30.757Z,66.52
2017-06-03T02:50:32.410Z,66.52
2017-06-03T02:51:34.036Z,66.91
2017-06-03T02:52:35.731Z,67.00
2017-06-03T02:53:37.385Z,67.00
2017-06-03T02:54:39.017Z,67.16
2017-06-03T02:55:40.674Z,66.33
2017-06-03T02:56:42.312Z,66.33
2017-06-03T02:57:43.972Z,66.33
2017-06-03T02:58:45.586Z,67.07
2017-06-03T02:59:47.191Z,67.26
2017-06-03T03:00:48.848Z,68.13
2017-06-03T03:01:50.476Z,68.38
2017-06-03T03:02:52.151Z,68.90
2017-06-03T03:03:53.774Z,70.02
2017-06-03T03:04:55.398Z,70.31
2017-06-03T03:05:56.996Z,69.29
2017-06-03T03:06:58.632Z,69.09
2017-06-03T03:08:00.294Z,69.38
2017-06-03T03:09:01.947Z,68.71
2017-06-03T03:10:03.601Z,68.42
2017-06-03T03:11:05.293Z,68.80
2017-06-03T03:12:06.950Z,68.77
2017-06-03T03:13:08.657Z,69.57
2017-06-03T03:14:10.264Z,69.45
2017-06-03T03:15:11.919Z,69.54
2017-06-03T03:16:13.535Z,70.02
2017-06-03T03:17:15.194Z,69.73
2017-06-03T03:18:16.858Z,69.77
2017-06-03T03:19:18.539Z,69.48
2017-06-03T03:20:20.204Z,68.99
2017-06-03T03:21:21.907Z,68.52
2017-06-03T03:22:23.595Z,68.13
2017-06-03T03:23:25.359Z,69.09
2017-06-03T03:24:27.031Z,69.09
2017-06-03T03:25:28.691Z,68.52
2017-06-03T03:26:30.413Z,67.46
2017-06-03T03:27:32.065Z,67.55
2017-06-03T03:28:33.787Z,67.46
2017-06-03T03:29:35.454Z,67.40
2017-06-03T03:30:37.207Z,67.46
2017-06-03T03:31:38.938Z,67.49
2017-06-03T03:32:40.630Z,67.30
2017-06-03T03:33:42.428Z,67.36
2017-06-03T03:34:44.143Z,67.68
2017-06-03T03:35:45.854Z,67.55
2017-06-03T03:36:47.535Z,66.97
2017-06-03T03:37:49.195Z,68.13
2017-06-03T03:38:50.925Z,67.40
2017-06-03T03:39:52.615Z,67.10
2017-06-03T03:40:54.302Z,67.58
2017-06-03T03:41:56.007Z,68.13
2017-06-03T03:42:57.671Z,69.19
2017-06-03T03:43:59.418Z,68.61
2017-06-03T03:45:01.156Z,68.80
2017-06-03T03:46:02.826Z,68.61
2017-06-03T03:47:04.443Z,68.04
2017-06-03T03:48:06.171Z,68.52
2017-06-03T03:49:07.804Z,68.61
2017-06-03T03:50:09.432Z,69.73
2017-06-03T03:51:11.168Z,69.29
2017-06-03T03:52:12.858Z,69.09
2017-06-03T03:53:14.511Z,69.93
2017-06-03T03:54:16.131Z,69.83
2017-06-03T03:55:17.760Z,70.12
2017-06-03T03:56:19.492Z,70.12
2017-06-03T03:57:21.187Z,69.73
2017-06-03T03:58:22.840Z,70.21
2017-06-03T03:59:24.493Z,69.09
2017-06-03T04:00:26.184Z,68.90
2017-06-03T04:01:27.830Z,68.04
2017-06-03T04:02:29.477Z,67.84
2017-06-03T04:03:31.099Z,67.36
2017-06-03T04:04:32.764Z,68.04
2017-06-03T04:05:34.513Z,67.84
2017-06-03T04:06:36.171Z,67.84
2017-06-03T04:07:37.809Z,67.74
2017-06-03T04:08:39.440Z,68.61
2017-06-03T04:09:41.090Z,67.84
2017-06-03T04:10:42.821Z,68.04
2017-06-03T04:11:44.493Z,68.42
2017-06-03T04:12:46.166Z,67.84
2017-06-03T04:13:47.803Z,67.55
2017-06-03T04:14:49.453Z,66.88
2017-06-03T04:15:51.169Z,66.62
2017-06-03T04:16:52.808Z,67.10
2017-06-03T04:17:54.448Z,67.20
2017-06-03T04:18:56.071Z,68.13
2017-06-03T04:19:57.719Z,68.04
2017-06-03T04:20:59.462Z,68.42
2017-06-03T04:22:01.088Z,68.32
2017-06-03T04:23:02.678Z,67.88
2017-06-03T04:24:04.278Z,67.84
2017-06-03T04:25:05.903Z,67.88
2017-06-03T04:26:07.557Z,66.82
2017-06-03T04:27:09.183Z,67.10
2017-06-03T04:28:10.798Z,66.91
2017-06-03T04:29:12.522Z,67.40
2017-06-03T04:30:14.153Z,66.82
2017-06-03T04:31:15.764Z,67.00
2017-06-03T04:32:17.391Z,66.82
2017-06-03T04:33:19.032Z,67.00
2017-06-03T04:34:20.754Z,67.68
2017-06-03T04:35:22.389Z,67.78
2017-06-03T04:36:24.025Z,67.97
2017-06-03T04:37:25.687Z,67.88
2017-06-03T04:38:27.299Z,68.45
2017-06-03T04:39:28.959Z,68.16
2017-06-03T04:40:30.625Z,67.30
2017-06-03T04:41:32.256Z,67.58
2017-06-03T04:42:33.889Z,67.97
2017-06-03T04:43:35.558Z,67.40
2017-06-03T04:44:37.230Z,68.35
2017-06-03T04:45:38.847Z,67.97
2017-06-03T04:46:40.476Z,68.16
2017-06-03T04:47:42.166Z,67.10
2017-06-03T04:48:43.835Z,67.49
2017-06-03T04:49:45.493Z,67.10
2017-06-03T04:50:47.209Z,67.23
2017-06-03T04:51:48.868Z,66.91
2017-06-03T04:52:50.556Z,66.91
2017-06-03T04:53:52.241Z,67.40
2017-06-03T04:54:53.997Z,67.78
2017-06-03T04:55:55.680Z,67.20
2017-06-03T04:56:57.360Z,67.10
2017-06-03T04:57:59.052Z,66.72
2017-06-03T04:59:00.717Z,67.10
2017-06-03T05:00:02.499Z,67.30
2017-06-03T05:01:04.203Z,68.26
2017-06-03T05:02:05.880Z,67.10
2017-06-03T05:03:07.589Z,67.58
2017-06-03T05:04:09.292Z,67.40
2017-06-03T05:05:11.010Z,69.13
2017-06-03T05:06:12.676Z,68.93
2017-06-03T05:07:14.344Z,69.03
2017-06-03T05:08:16.024Z,68.65
2017-06-03T05:09:17.675Z,68.84
2017-06-03T05:10:19.429Z,68.26
2017-06-03T05:11:21.084Z,68.45
2017-06-03T05:12:22.705Z,68.07
2017-06-03T05:13:24.309Z,68.65
2017-06-03T05:14:26.006Z,69.03
2017-06-03T05:15:28.258Z,68.84
2017-06-03T05:16:29.984Z,68.84
2017-06-03T05:17:31.604Z,69.90
2017-06-03T05:18:33.238Z,69.09
2017-06-03T05:19:34.932Z,70.28
2017-06-03T05:20:36.569Z,69.42
2017-06-03T05:21:38.234Z,68.84
2017-06-03T05:22:39.858Z,69.13
2017-06-03T05:23:41.498Z,69.42
2017-06-03T05:24:43.222Z,69.80
2017-06-03T05:25:44.959Z,69.80
2017-06-03T05:26:46.601Z,69.51
2017-06-03T05:27:48.239Z,69.90
2017-06-03T05:28:49.906Z,69.61
2017-06-03T05:29:51.564Z,69.80
2017-06-03T05:30:53.279Z,69.13
2017-06-03T05:31:54.893Z,68.74
2017-06-03T05:32:56.583Z,69.13
2017-06-03T05:33:58.222Z,69.42
2017-06-03T05:34:59.880Z,69.13
2017-06-03T05:36:01.560Z,68.55
2017-06-03T05:37:03.171Z,69.03
2017-06-03T05:38:04.876Z,69.03
2017-06-03T05:39:06.500Z,68.01
2017-06-03T05:40:08.159Z,67.91
2017-06-03T05:41:09.894Z,67.91
2017-06-03T05:42:11.576Z,68.01
2017-06-03T05:43:14.497Z,67.91
2017-06-03T05:44:18.753Z,66.85
2017-06-03T05:45:20.296Z,67.81
2017-06-03T05:46:21.964Z,68.39
2017-06-03T05:47:23.584Z,68.01
2017-06-03T05:48:25.212Z,67.62
2017-06-03T05:49:26.827Z,67.62
2017-06-03T05:50:28.444Z,67.43
2017-06-03T05:51:30.139Z,67.04
2017-06-03T05:52:31.778Z,67.23
2017-06-03T05:53:33.402Z,66.94
2017-06-03T05:54:35.027Z,67.62
2017-06-03T05:55:36.653Z,67.33
2017-06-03T05:56:38.326Z,67.23
2017-06-03T05:57:39.970Z,66.85
2017-06-03T05:58:41.607Z,66.85
2017-06-03T05:59:43.229Z,66.94
2017-06-03T06:00:44.937Z,67.04
2017-06-03T06:01:46.590Z,66.66
2017-06-03T06:02:48.211Z,67.33
2017-06-03T06:03:49.837Z,67.04
2017-06-03T06:04:51.488Z,67.36
2017-06-03T06:05:53.159Z,67.71
2017-06-03T06:06:54.838Z,67.81
2017-06-03T06:07:56.470Z,66.94
2017-06-03T06:08:58.118Z,67.23
2017-06-03T06:09:59.771Z,67.62
2017-06-03T06:11:01.428Z,67.62
2017-06-03T06:12:03.157Z,67.04
2017-06-03T06:13:04.890Z,67.23
2017-06-03T06:14:06.514Z,66.88
2017-06-03T06:15:08.165Z,67.55
2017-06-03T06:16:09.789Z,67.17
2017-06-03T06:17:11.424Z,66.59
2017-06-03T06:18:13.133Z,66.78
2017-06-03T06:19:14.775Z,67.17
2017-06-03T06:20:16.541Z,66.88
2017-06-03T06:21:18.191Z,67.17
2017-06-03T06:22:19.877Z,67.17
2017-06-03T06:23:21.537Z,67.04
2017-06-03T06:24:23.179Z,67.17
2017-06-03T06:25:24.887Z,67.65
2017-06-03T06:26:26.571Z,68.13
2017-06-03T06:27:28.277Z,67.27
2017-06-03T06:28:29.966Z,66.97
2017-06-03T06:29:31.711Z,67.07
2017-06-03T06:30:33.468Z,67.36
2017-06-03T06:31:35.171Z,66.78
2017-06-03T06:32:36.863Z,67.07
2017-06-03T06:33:38.566Z,67.07
2017-06-03T06:34:40.243Z,67.07
2017-06-03T06:35:41.989Z,66.78
2017-06-03T06:36:43.708Z,66.30
2017-06-03T06:37:45.430Z,66.40
2017-06-03T06:38:47.078Z,66.49
2017-06-03T06:39:48.779Z,66.49
2017-06-03T06:40:50.418Z,66.30
2017-06-03T06:41:52.180Z,66.59
2017-06-03T06:43:33.347Z,66.40
2017-06-03T06:45:15.073Z,66.40
2017-06-03T06:46:16.712Z,66.59
2017-06-03T06:47:18.380Z,66.20
2017-06-03T06:48:20.030Z,66.69
2017-06-03T06:49:21.748Z,65.72
2017-06-03T06:50:23.464Z,65.91
2017-06-03T06:51:25.107Z,66.05
2017-06-03T06:52:26.755Z,65.91
2017-06-03T06:53:28.532Z,65.95
2017-06-03T06:54:30.230Z,65.75
2017-06-03T06:55:31.901Z,65.82
2017-06-03T06:56:33.567Z,65.66
2017-06-03T06:57:35.233Z,65.43
2017-06-03T06:58:36.968Z,65.56
2017-06-03T06:59:39.763Z,65.75
2017-06-03T07:00:43.088Z,65.47
2017-06-03T07:01:47.943Z,65.47
